Time;durP1;ratioP1;P1;durP2;ratioP2;P2;SDS_P1;SDS_P2;PMS_P1;PMS_P2;Temp;Humidity;BMP_temperature;BMP_pressure;BME280_temperature;BME280_humidity;BME280_pressure;Samples;Min_cycle;Max_cycle;Signal;HPM_P1;HPM_P2
2022/11/09 00:02:34;;;;;;;30.20;21.20;;;;;;;7.79;79.60;99773.17;209101;1299;139842;-68
2022/11/09 00:07:45;;;;;;;34.10;17.90;;;;;;;7.78;79.68;99770.56;209769;1302;248200;-68
2022/11/09 00:12:49;;;;;;;32.10;18.80;;;;;;;7.80;79.69;99769.95;209770;1303;140464;-69
2022/11/09 00:17:53;;;;;;;36.20;19.10;;;;;;;7.81;79.68;99770.88;208573;1298;140714;-68
2022/11/09 00:22:56;;;;;;;38.00;19.50;;;;;;;7.81;79.72;99768.48;208544;1303;139866;-68
2022/11/09 00:28:00;;;;;;;27.90;17.40;;;;;;;7.82;80.17;99772.80;209918;1304;139264;-69
2022/11/09 00:33:04;;;;;;;29.70;18.80;;;;;;;7.82;80.03;99769.48;209953;1300;140003;-68
2022/11/09 00:38:08;;;;;;;35.40;21.60;;;;;;;7.80;80.11;99765.74;209726;1298;140015;-69
2022/11/09 00:43:12;;;;;;;34.30;20.50;;;;;;;7.81;80.40;99764.95;208665;1303;139730;-67
2022/11/09 00:48:15;;;;;;;30.00;19.70;;;;;;;7.79;80.50;99756.36;209837;1298;140993;-68
2022/11/09 00:53:20;;;;;;;33.70;18.20;;;;;;;7.78;80.23;99753.58;209873;1298;139899;-68
2022/11/09 00:58:26;;;;;;;31.90;19.50;;;;;;;7.77;80.21;99750.37;209538;1298;140987;-68
2022/11/09 01:03:29;;;;;;;30.20;18.10;;;;;;;7.76;80.56;99745.07;209954;1300;141137;-70
2022/11/09 01:08:34;;;;;;;35.20;21.60;;;;;;;7.76;80.46;99740.66;209765;1299;139460;-68
2022/11/09 01:13:38;;;;;;;41.20;23.10;;;;;;;7.76;80.19;99738.86;209740;1282;141849;-68
2022/11/09 01:18:42;;;;;;;33.30;19.20;;;;;;;7.74;80.69;99733.61;209773;1296;140684;-70
2022/11/09 01:23:46;;;;;;;29.70;18.10;;;;;;;7.77;80.77;99731.95;209486;1304;141365;-68
2022/11/09 01:28:49;;;;;;;33.10;21.00;;;;;;;7.76;80.97;99732.45;209840;1297;140060;-68
2022/11/09 01:33:52;;;;;;;33.20;19.60;;;;;;;7.74;80.89;99733.27;210111;1290;140086;-68
2022/11/09 01:38:57;;;;;;;39.50;19.90;;;;;;;7.71;80.80;99729.67;209752;1290;140403;-67
2022/11/09 01:44:01;;;;;;;28.30;17.70;;;;;;;7.71;80.72;99729.27;209777;1304;140420;-65
2022/11/09 01:49:12;;;;;;;29.70;16.70;;;;;;;7.65;80.72;99723.80;209743;1297;140846;-66
2022/11/09 01:54:24;;;;;;;36.40;22.40;;;;;;;7.57;81.16;99724.57;209915;1299;140054;-67
2022/11/09 01:59:32;;;;;;;38.00;20.80;;;;;;;7.56;81.17;99727.23;209744;1298;140447;-67
2022/11/09 02:04:42;;;;;;;29.30;17.60;;;;;;;7.55;81.03;99727.77;209355;1298;140716;-67
2022/11/09 02:09:54;;;;;;;34.80;23.10;;;;;;;7.55;81.23;99731.64;209727;1304;141064;-67
2022/11/09 02:15:01;;;;;;;38.90;21.50;;;;;;;7.58;81.00;99729.91;209493;1300;140317;-68
2022/11/09 02:20:11;;;;;;;34.00;21.10;;;;;;;7.58;81.55;99731.05;209480;1305;140791;-68
2022/11/09 02:25:16;;;;;;;36.20;20.00;;;;;;;7.57;81.37;99738.77;209735;1293;140452;-68
2022/11/09 02:30:20;;;;;;;38.40;22.60;;;;;;;7.57;81.43;99734.27;209878;1290;141370;-67
2022/11/09 02:35:24;;;;;;;32.80;20.80;;;;;;;7.53;81.36;99724.77;209977;1299;140136;-70
2022/11/09 02:40:31;;;;;;;31.20;19.00;;;;;;;7.46;81.47;99720.67;209587;1300;142730;-68
2022/11/09 02:45:35;;;;;;;46.30;22.70;;;;;;;7.42;81.26;99717.77;207604;1300;140855;-69
2022/11/09 02:50:39;;;;;;;41.90;21.70;;;;;;;7.40;81.78;99722.55;209634;1304;142438;-69
2022/11/09 02:55:42;;;;;;;37.30;21.30;;;;;;;7.38;81.68;99724.23;209727;1300;155594;-69
2022/11/09 03:00:46;;;;;;;32.40;19.20;;;;;;;7.39;81.81;99726.80;209924;1300;142212;-68
2022/11/09 03:05:49;;;;;;;34.20;20.80;;;;;;;7.42;82.28;99726.83;209933;1302;139587;-67
2022/11/09 03:10:52;;;;;;;32.20;20.60;;;;;;;7.44;82.50;99729.55;209680;1300;139360;-67
2022/11/09 03:15:56;;;;;;;36.40;20.80;;;;;;;7.48;82.80;99725.33;209885;1298;139956;-67
2022/11/09 03:21:04;;;;;;;36.50;20.10;;;;;;;7.56;82.81;99723.10;209664;1288;141575;-67
2022/11/09 03:26:07;;;;;;;38.40;21.00;;;;;;;7.64;82.69;99722.14;209665;1300;141195;-68
2022/11/09 03:31:11;;;;;;;32.30;20.10;;;;;;;7.73;82.79;99718.80;209740;1299;141770;-67
2022/11/09 03:36:15;;;;;;;34.20;20.90;;;;;;;7.73;82.50;99709.45;210001;1296;140581;-69
2022/11/09 03:41:19;;;;;;;33.70;21.90;;;;;;;7.71;82.56;99711.52;209959;1304;139317;-68
2022/11/09 03:46:23;;;;;;;34.10;18.10;;;;;;;7.70;82.75;99716.98;209817;1302;139994;-69
2022/11/09 03:51:26;;;;;;;37.70;22.10;;;;;;;7.74;82.81;99711.89;209661;1300;141407;-68
2022/11/09 03:56:30;;;;;;;34.70;20.00;;;;;;;7.77;82.71;99704.73;209722;1292;140342;-68
2022/11/09 04:01:34;;;;;;;31.50;19.20;;;;;;;7.77;82.84;99703.87;209849;1289;142582;-68
2022/11/09 04:06:38;;;;;;;34.30;19.80;;;;;;;7.75;83.03;99704.50;209911;1299;141164;-67
2022/11/09 04:11:41;;;;;;;39.90;22.10;;;;;;;7.72;83.19;99702.02;209836;1297;140271;-68
2022/11/09 04:16:45;;;;;;;36.90;20.90;;;;;;;7.71;83.11;99706.36;207344;1297;140752;-68
2022/11/09 04:21:48;;;;;;;37.10;18.20;;;;;;;7.68;82.98;99702.95;209868;1299;140822;-66
2022/11/09 04:26:52;;;;;;;38.20;20.00;;;;;;;7.66;82.82;99701.91;209585;1293;139799;-67
2022/11/09 04:31:55;;;;;;;26.50;14.80;;;;;;;7.61;82.70;99698.05;209687;1299;139601;-67
2022/11/09 04:36:59;;;;;;;25.90;16.20;;;;;;;7.60;82.95;99696.06;208338;1296;298103;-66
2022/11/09 04:42:03;;;;;;;33.20;19.40;;;;;;;7.60;83.28;99696.88;209810;1298;140369;-66
2022/11/09 04:47:06;;;;;;;27.50;17.40;;;;;;;7.61;83.29;99689.57;209836;1297;141311;-67
2022/11/09 04:52:10;;;;;;;36.30;19.00;;;;;;;7.59;83.36;99690.68;209944;1298;139728;-67
2022/11/09 04:57:13;;;;;;;31.80;18.20;;;;;;;7.62;83.57;99689.07;210013;1298;141221;-67
2022/11/09 05:02:17;;;;;;;36.70;19.70;;;;;;;7.64;83.51;99693.12;209496;1297;140748;-69
2022/11/09 05:07:21;;;;;;;35.10;19.40;;;;;;;7.69;83.61;99688.17;209596;1305;140798;-69
2022/11/09 05:12:24;;;;;;;33.80;18.40;;;;;;;7.70;83.73;99683.92;209829;1299;140156;-69
2022/11/09 05:17:28;;;;;;;32.20;20.50;;;;;;;7.75;83.99;99690.74;209922;1300;140452;-68
2022/11/09 05:27:55;;;;;;;32.40;17.30;;;;;;;7.85;83.57;99696.42;209867;1283;246925;-67
2022/11/09 05:32:58;;;;;;;31.90;17.70;;;;;;;7.86;84.11;99692.00;209876;1296;140014;-67
2022/11/09 05:38:02;;;;;;;33.70;18.20;;;;;;;7.90;84.11;99690.63;209715;1291;140995;-68
2022/11/09 05:43:05;;;;;;;34.20;20.90;;;;;;;7.97;84.40;99692.38;209646;1303;141166;-69
2022/11/09 05:48:09;;;;;;;30.00;16.60;;;;;;;8.04;84.00;99697.17;209712;1297;140812;-70
2022/11/09 05:53:13;;;;;;;32.20;19.30;;;;;;;8.12;84.06;99697.88;209920;1300;141336;-69
2022/11/09 05:58:17;;;;;;;42.90;20.50;;;;;;;8.20;84.25;99691.83;209894;1291;140922;-67
2022/11/09 06:03:20;;;;;;;29.40;17.80;;;;;;;8.30;84.17;99688.73;209886;1298;139752;-68
2022/11/09 06:08:24;;;;;;;24.60;15.10;;;;;;;8.35;84.02;99688.79;209874;1298;140021;-68
2022/11/09 06:13:28;;;;;;;27.00;18.10;;;;;;;8.38;84.04;99691.42;209372;1299;140579;-69
2022/11/09 06:18:34;;;;;;;35.10;20.60;;;;;;;8.45;83.79;99695.39;209725;1298;140795;-66
2022/11/09 06:23:38;;;;;;;29.70;17.20;;;;;;;8.56;83.96;99699.90;209693;1299;140967;-66
2022/11/09 06:28:41;;;;;;;29.20;15.80;;;;;;;8.64;83.58;99699.65;209785;1290;142694;-67
2022/11/09 06:33:45;;;;;;;34.60;21.70;;;;;;;8.67;83.61;99701.21;209892;1298;140472;-69
2022/11/09 06:38:50;;;;;;;38.90;18.40;;;;;;;8.76;83.71;99703.98;209748;1298;139768;-66
2022/11/09 06:43:55;;;;;;;30.80;19.10;;;;;;;8.98;83.61;99700.20;209704;1292;145097;-65
2022/11/09 06:49:01;;;;;;;29.50;18.30;;;;;;;9.27;83.69;99694.70;209683;1292;141998;-66
2022/11/09 06:54:04;;;;;;;29.80;18.20;;;;;;;9.49;83.43;99696.16;209660;1299;139750;-66
2022/11/09 06:59:08;;;;;;;34.30;21.10;;;;;;;9.57;83.09;99696.03;209939;1296;139757;-65
2022/11/09 07:04:13;;;;;;;36.60;18.40;;;;;;;9.64;82.69;99693.25;209432;1298;140071;-67
2022/11/09 07:09:17;;;;;;;26.90;17.30;;;;;;;9.70;82.58;99695.99;208626;1299;141943;-69
2022/11/09 07:14:21;;;;;;;32.00;19.00;;;;;;;9.76;82.30;99690.57;209750;1290;139481;-70
2022/11/09 07:19:24;;;;;;;28.20;16.60;;;;;;;9.82;82.40;99690.09;209661;1296;141062;-64
2022/11/09 07:24:28;;;;;;;28.10;16.60;;;;;;;9.94;82.25;99684.08;209708;1298;140269;-72
2022/11/09 07:29:31;;;;;;;28.50;16.90;;;;;;;10.02;82.00;99689.19;209799;1299;141627;-67
2022/11/09 07:34:36;;;;;;;28.70;18.50;;;;;;;10.13;82.00;99691.33;209575;1295;142612;-71
2022/11/09 07:39:40;;;;;;;29.10;19.80;;;;;;;10.24;81.86;99693.59;209570;1299;141199;-78
2022/11/09 07:44:43;;;;;;;31.30;19.40;;;;;;;10.42;81.84;99690.88;209805;1285;141578;-74
2022/11/09 07:49:46;;;;;;;29.00;17.20;;;;;;;10.59;81.51;99686.58;209879;1300;140671;-78
2022/11/09 07:54:50;;;;;;;32.30;18.70;;;;;;;10.76;81.59;99684.41;209946;1296;140546;-72
2022/11/09 07:59:54;;;;;;;31.70;16.90;;;;;;;10.97;81.17;99682.33;209853;1297;142475;-71
2022/11/09 08:04:58;;;;;;;26.20;16.60;;;;;;;11.11;80.79;99677.30;209645;1298;140188;-70
2022/11/09 08:10:03;;;;;;;29.40;18.00;;;;;;;11.18;80.41;99674.86;209522;1290;140664;-78
2022/11/09 08:15:07;;;;;;;31.30;17.70;;;;;;;11.24;80.00;99675.13;209735;1299;140883;-71
2022/11/09 08:20:10;;;;;;;27.40;18.10;;;;;;;11.33;80.02;99679.22;209927;1299;142567;-71
2022/11/09 08:25:14;;;;;;;32.50;17.60;;;;;;;11.37;80.03;99692.58;209925;1299;139823;-70
2022/11/09 08:30:20;;;;;;;28.30;18.60;;;;;;;11.43;79.60;99697.23;209471;1299;139903;-66
2022/11/09 08:35:25;;;;;;;25.50;17.30;;;;;;;11.50;79.48;99694.52;209181;1299;146938;-67
2022/11/09 08:40:30;;;;;;;29.90;19.80;;;;;;;11.56;79.24;99695.43;209633;1298;140078;-66
2022/11/09 08:45:35;;;;;;;30.50;17.50;;;;;;;11.60;78.96;99693.50;209750;1295;139863;-66
2022/11/09 08:50:39;;;;;;;34.10;19.50;;;;;;;11.59;78.80;99691.85;208891;1299;139964;-64
2022/11/09 08:55:43;;;;;;;31.10;19.60;;;;;;;11.71;78.70;99695.23;209545;1297;142261;-68
2022/11/09 09:00:51;;;;;;;26.30;17.00;;;;;;;11.86;78.60;99693.05;208756;1292;141737;-71
2022/11/09 09:05:55;;;;;;;29.80;18.10;;;;;;;12.00;78.66;99690.52;209770;1299;139914;-80
2022/11/09 09:11:03;;;;;;;30.70;17.40;;;;;;;12.13;78.40;99694.93;207508;1304;140620;-75
2022/11/09 09:16:14;;;;;;;28.40;17.40;;;;;;;12.30;78.47;99698.69;209612;1295;227268;-67
2022/11/09 09:21:18;;;;;;;23.40;16.60;;;;;;;12.49;78.21;99696.92;209988;1299;140391;-76
2022/11/09 09:26:22;;;;;;;25.50;17.40;;;;;;;12.68;77.81;99703.20;209928;1295;140603;-71
2022/11/09 09:31:25;;;;;;;26.30;17.80;;;;;;;12.93;77.70;99716.21;209618;1296;141931;-70
2022/11/09 09:36:29;;;;;;;32.80;19.60;;;;;;;13.05;77.07;99710.00;209658;1297;140295;-70
2022/11/09 09:42:07;;;;;;;27.40;18.60;;;;;;;13.15;76.57;99703.95;209868;1296;140444;-69
2022/11/09 09:47:41;;;;;;;22.90;15.10;;;;;;;13.35;76.60;99696.99;209740;1304;141737;-69
2022/11/09 09:53:01;;;;;;;28.20;17.00;;;;;;;13.49;76.26;99695.29;209815;1297;141721;-70
2022/11/09 09:58:28;;;;;;;27.40;18.70;;;;;;;13.62;75.54;99688.40;209666;1298;247481;-70
2022/11/09 10:03:32;;;;;;;27.60;19.00;;;;;;;13.77;75.52;99696.32;209873;1297;141023;-69
2022/11/09 10:08:50;;;;;;;25.30;16.30;;;;;;;13.67;74.72;99698.45;209760;1298;140802;-69
2022/11/09 10:14:24;;;;;;;27.30;17.60;;;;;;;13.61;74.55;99693.46;207416;1302;140013;-69
2022/11/09 10:20:07;;;;;;;23.80;17.70;;;;;;;13.70;74.53;99682.58;206723;1289;139302;-68
2022/11/09 10:25:23;;;;;;;26.60;15.40;;;;;;;13.87;74.60;99677.21;206442;1290;140827;-65
2022/11/09 10:30:46;;;;;;;28.20;15.80;;;;;;;14.08;74.14;99676.34;206658;1295;226128;-65
2022/11/09 10:36:01;;;;;;;27.10;14.70;;;;;;;14.35;73.85;99687.13;206942;1290;141774;-69
2022/11/09 10:41:25;;;;;;;25.10;16.20;;;;;;;14.55;73.33;99692.55;206457;1290;140588;-69
2022/11/09 10:46:28;;;;;;;24.90;16.60;;;;;;;14.55;72.91;99696.46;206614;1301;140738;-68
2022/11/09 10:51:45;;;;;;;27.60;16.90;;;;;;;14.47;72.34;99699.91;206714;1296;140333;-69
2022/11/09 10:56:58;;;;;;;24.20;16.70;;;;;;;14.44;72.26;99697.31;206827;1302;139693;-69
2022/11/09 11:02:24;;;;;;;21.90;15.30;;;;;;;14.53;72.16;99700.69;208424;1291;140284;-68
2022/11/09 11:07:28;;;;;;;24.10;16.30;;;;;;;14.58;71.96;99703.71;207582;1295;141006;-67
2022/11/09 11:12:31;;;;;;;25.20;17.40;;;;;;;14.54;71.61;99707.23;206718;1283;142411;-68
2022/11/09 11:17:36;;;;;;;24.30;14.30;;;;;;;14.55;71.54;99709.06;207530;1302;141274;-67
2022/11/09 11:22:40;;;;;;;25.60;17.00;;;;;;;14.51;71.32;99710.92;208538;1297;143451;-68
2022/11/09 11:27:57;;;;;;;25.80;16.30;;;;;;;14.34;70.91;99706.84;208499;1300;152368;-68
2022/11/09 11:33:05;;;;;;;26.00;17.80;;;;;;;14.23;71.13;99704.84;209745;1299;140537;-69
2022/11/09 11:38:11;;;;;;;27.10;17.30;;;;;;;14.21;71.06;99706.55;209955;1300;233050;-68
2022/11/09 11:43:34;;;;;;;26.00;17.10;;;;;;;14.20;70.98;99707.40;209825;1299;140969;-69
2022/11/09 11:49:16;;;;;;;23.80;16.10;;;;;;;14.15;71.06;99705.80;209954;1298;140203;-70
2022/11/09 11:54:23;;;;;;;20.30;13.40;;;;;;;14.08;70.78;99703.16;208339;1299;238098;-70
2022/11/09 11:59:38;;;;;;;22.80;15.50;;;;;;;14.01;70.81;99703.42;209890;1296;141227;-70
2022/11/09 12:05:03;;;;;;;21.50;16.40;;;;;;;13.94;70.91;99702.89;210074;1300;140066;-69
2022/11/09 12:10:54;;;;;;;24.60;17.20;;;;;;;13.89;70.92;99710.52;207874;1296;142197;-68
2022/11/09 12:16:06;;;;;;;21.30;14.50;;;;;;;13.84;70.78;99702.32;207121;1305;219544;-69
2022/11/09 12:21:21;;;;;;;20.60;15.70;;;;;;;13.74;70.75;99701.13;208883;1295;140463;-69
2022/11/09 12:27:01;;;;;;;21.40;14.90;;;;;;;13.64;70.92;99697.20;209817;1291;140603;-68
2022/11/09 12:32:40;;;;;;;20.80;14.90;;;;;;;13.55;70.97;99679.60;209524;1300;225016;-69
2022/11/09 12:37:53;;;;;;;30.00;17.10;;;;;;;13.40;70.81;99672.67;209931;1301;140935;-69
2022/11/09 12:43:22;;;;;;;26.10;16.80;;;;;;;13.40;71.48;99686.66;206868;1302;140232;-70
2022/11/09 12:48:28;;;;;;;25.20;17.00;;;;;;;13.55;71.81;99695.14;206653;1297;139635;-71
2022/11/09 12:53:35;;;;;;;25.70;17.80;;;;;;;13.65;71.61;99688.64;208810;1303;140261;-71
2022/11/09 12:58:39;;;;;;;28.80;15.70;;;;;;;13.61;71.27;99687.48;209556;1296;141198;-70
2022/11/09 13:03:54;;;;;;;27.70;17.90;;;;;;;13.59;71.58;99695.91;208102;1296;139707;-70
2022/11/09 13:09:18;;;;;;;27.10;17.60;;;;;;;13.61;71.20;99698.83;207655;1291;139817;-71
2022/11/09 13:14:21;;;;;;;26.20;14.40;;;;;;;13.65;71.17;99697.91;209925;1303;140336;-71
2022/11/09 13:19:34;;;;;;;24.00;14.00;;;;;;;13.64;71.00;99701.32;209825;1289;141171;-71
2022/11/09 13:24:55;;;;;;;22.90;14.80;;;;;;;13.60;71.00;99696.30;209981;1297;139855;-71
2022/11/09 13:30:00;;;;;;;24.00;15.30;;;;;;;13.62;71.18;99699.80;208240;1299;139919;-70
2022/11/09 13:35:39;;;;;;;25.40;14.00;;;;;;;13.70;71.15;99702.23;206595;1294;139246;-71
2022/11/09 13:40:50;;;;;;;23.90;13.60;;;;;;;13.81;71.05;99700.80;209745;1299;141696;-70
2022/11/09 13:45:57;;;;;;;25.70;15.20;;;;;;;13.79;70.88;99697.63;210059;1303;140683;-70
2022/11/09 13:51:39;;;;;;;32.60;18.00;;;;;;;13.67;70.54;99695.19;209961;1303;140236;-70
2022/11/09 13:56:46;;;;;;;34.40;19.10;;;;;;;13.60;70.85;99697.27;209887;1296;141500;-70
2022/11/09 14:01:52;;;;;;;24.80;17.10;;;;;;;13.53;70.83;99694.90;209654;1304;139678;-71
2022/11/09 14:07:26;;;;;;;29.90;19.30;;;;;;;13.46;70.85;99702.61;209645;1297;139998;-69
2022/11/09 14:12:53;;;;;;;32.00;18.60;;;;;;;13.40;71.10;99707.54;209845;1300;140563;-69
2022/11/09 14:18:15;;;;;;;30.20;17.70;;;;;;;13.28;70.98;99713.46;209826;1303;140202;-69
2022/11/09 14:23:21;;;;;;;28.20;18.10;;;;;;;13.13;70.99;99710.77;208748;1288;139983;-69
2022/11/09 14:28:30;;;;;;;30.20;20.00;;;;;;;12.99;71.20;99710.56;206540;1306;141524;-69
2022/11/09 14:33:35;;;;;;;29.40;19.90;;;;;;;12.97;71.69;99713.80;206840;1302;140424;-69
2022/11/09 14:38:46;;;;;;;31.20;18.70;;;;;;;12.94;71.87;99723.08;206614;1290;139677;-68
2022/11/09 14:43:52;;;;;;;27.60;18.10;;;;;;;12.78;71.48;99712.69;209432;1302;140438;-69
2022/11/09 14:49:00;;;;;;;31.50;19.20;;;;;;;12.54;71.54;99701.52;208336;1289;140247;-69
2022/11/09 14:54:08;;;;;;;29.40;17.10;;;;;;;12.38;71.95;99703.09;208420;1302;140847;-70
2022/11/09 14:59:16;;;;;;;27.80;17.20;;;;;;;12.25;72.28;99699.00;209597;1295;139960;-70
2022/11/09 15:04:21;;;;;;;33.70;20.60;;;;;;;12.12;72.47;99698.34;209830;1298;140913;-69
2022/11/09 15:09:44;;;;;;;38.20;22.70;;;;;;;12.08;72.76;99702.39;209928;1296;139979;-70
2022/11/09 15:15:02;;;;;;;36.90;21.10;;;;;;;12.02;72.82;99706.69;209758;1305;140063;-70
2022/11/09 15:20:06;;;;;;;21.40;13.70;;;;;;;11.99;72.97;99702.89;209655;1296;162042;-69
2022/11/09 15:25:29;;;;;;;32.40;19.80;;;;;;;11.85;73.00;99702.97;209737;1298;140386;-69
2022/11/09 15:30:36;;;;;;;39.00;20.60;;;;;;;11.83;73.39;99705.28;209777;1302;140522;-69
2022/11/09 15:35:59;;;;;;;34.20;21.20;;;;;;;11.78;73.11;99709.73;209863;1303;141226;-68
2022/11/09 15:41:10;;;;;;;34.70;19.70;;;;;;;11.66;73.41;99709.19;209919;1297;140226;-70
2022/11/09 15:46:20;;;;;;;32.60;18.90;;;;;;;11.52;73.30;99716.06;209952;1302;141259;-69
2022/11/09 15:51:24;;;;;;;33.70;20.60;;;;;;;11.44;73.51;99724.26;209749;1293;140423;-69
2022/11/09 15:56:28;;;;;;;37.10;19.90;;;;;;;11.42;73.61;99734.68;209772;1303;140890;-69
2022/11/09 16:01:32;;;;;;;38.70;21.70;;;;;;;11.37;73.60;99725.94;209679;1295;140967;-69
2022/11/09 16:06:37;;;;;;;29.30;20.20;;;;;;;11.26;73.63;99725.11;209737;1301;139855;-69
2022/11/09 16:11:50;;;;;;;34.90;21.30;;;;;;;11.06;73.49;99715.56;209785;1299;139993;-69
2022/11/09 16:16:54;;;;;;;40.30;19.70;;;;;;;10.92;73.70;99705.05;209637;1302;141022;-69
2022/11/09 16:22:00;;;;;;;38.10;22.40;;;;;;;10.85;73.97;99699.79;209582;1299;141813;-69
2022/11/09 16:27:05;;;;;;;36.40;20.60;;;;;;;10.85;74.14;99705.72;209613;1299;160535;-69
2022/11/09 16:32:24;;;;;;;33.00;18.90;;;;;;;10.87;74.41;99713.02;208365;1303;140102;-68
2022/11/09 16:37:31;;;;;;;37.10;22.10;;;;;;;10.85;74.68;99722.25;206086;1304;362880;-69
2022/11/09 16:42:36;;;;;;;28.30;18.40;;;;;;;10.81;74.56;99715.92;206789;1297;140589;-71
2022/11/09 16:47:45;;;;;;;29.80;18.90;;;;;;;10.72;74.40;99705.83;209419;1297;140793;-71
2022/11/09 16:52:49;;;;;;;38.20;21.30;;;;;;;10.60;74.61;99710.66;206750;1290;140062;-70
2022/11/09 17:02:08;;;;;;;31.70;19.40;;;;;;;10.40;74.89;99699.04;208207;1327;636569;-71
2022/11/09 17:07:13;;;;;;;35.20;20.80;;;;;;;10.20;75.02;99690.42;208038;1307;140430;-71
2022/11/09 17:12:22;;;;;;;40.10;22.90;;;;;;;10.13;75.39;99699.95;206302;1300;395968;-70
2022/11/09 17:17:30;;;;;;;39.80;22.60;;;;;;;10.13;75.68;99710.92;208709;1307;140169;-71
2022/11/09 17:22:41;;;;;;;43.10;21.90;;;;;;;10.12;75.81;99710.28;208856;1303;138852;-71
2022/11/09 17:27:52;;;;;;;40.20;21.00;;;;;;;10.20;76.00;99715.06;209028;1303;141473;-71
2022/11/09 17:33:02;;;;;;;35.80;21.50;;;;;;;10.29;76.13;99717.20;208739;1305;141775;-71
2022/11/09 17:38:10;;;;;;;33.60;21.00;;;;;;;10.34;76.18;99719.01;208588;1311;236463;-71
2022/11/09 17:43:16;;;;;;;;;;;;;;;10.34;76.13;99718.59;209348;1308;139989;-71
2022/11/09 17:48:24;;;;;;;43.30;22.30;;;;;;;10.32;76.29;99719.48;210072;1300;230998;-71
2022/11/09 17:53:31;;;;;;;42.30;23.70;;;;;;;10.36;76.17;99722.58;209312;1292;140167;-70
2022/11/09 17:58:40;;;;;;;43.00;24.30;;;;;;;10.40;76.14;99731.83;209305;1304;223134;-71
2022/11/09 18:03:46;;;;;;;36.10;21.70;;;;;;;10.40;76.25;99735.71;209480;1307;139690;-71
2022/11/09 18:08:55;;;;;;;34.40;22.00;;;;;;;10.40;76.22;99734.36;209489;1300;140044;-71
2022/11/09 18:14:21;;;;;;;39.10;19.80;;;;;;;10.41;76.12;99737.42;209365;1301;244533;-71
2022/11/09 18:19:32;;;;;;;33.10;22.20;;;;;;;10.40;76.04;99736.30;209298;1301;140393;-72
2022/11/09 18:24:40;;;;;;;32.70;19.60;;;;;;;10.40;76.35;99740.51;209389;1301;225432;-70
2022/11/09 18:29:49;;;;;;;37.70;22.30;;;;;;;10.35;76.09;99741.90;209492;1304;139277;-71
2022/11/09 18:34:56;;;;;;;33.60;20.30;;;;;;;10.30;76.00;99746.98;209288;1301;139847;-70
2022/11/09 18:40:07;;;;;;;30.20;19.50;;;;;;;10.29;76.05;99747.25;209438;1293;140258;-70
2022/11/09 18:45:20;;;;;;;36.70;19.80;;;;;;;10.23;76.16;99744.19;210154;1282;141460;-70
2022/11/09 18:50:27;;;;;;;32.90;20.40;;;;;;;10.18;76.21;99747.55;209968;1297;220293;-70
2022/11/09 18:55:38;;;;;;;34.00;21.80;;;;;;;10.15;76.22;99741.55;210030;1298;139175;-70
2022/11/09 19:00:43;;;;;;;37.10;20.00;;;;;;;10.11;76.28;99736.90;209577;1298;140883;-70
2022/11/09 19:05:47;;;;;;;41.00;21.50;;;;;;;10.05;76.24;99746.04;207324;1297;139458;-68
2022/11/09 19:10:51;;;;;;;34.10;21.90;;;;;;;10.02;76.47;99749.52;210030;1298;139540;-70
2022/11/09 19:15:55;;;;;;;39.40;22.40;;;;;;;9.98;76.68;99753.65;209869;1298;139217;-70
2022/11/09 19:21:01;;;;;;;34.70;20.80;;;;;;;9.98;76.64;99760.09;210195;1301;140768;-70
2022/11/09 19:26:05;;;;;;;38.00;20.40;;;;;;;9.98;76.49;99771.80;210054;1296;140568;-69
2022/11/09 19:31:15;;;;;;;43.10;23.70;;;;;;;9.90;76.48;99766.39;210360;1293;139893;-70
2022/11/09 19:36:23;;;;;;;38.50;22.40;;;;;;;9.87;76.65;99768.86;207305;1297;139421;-68
2022/11/09 19:41:35;;;;;;;34.70;20.10;;;;;;;9.87;76.76;99770.29;210294;1294;139572;-70
2022/11/09 19:46:40;;;;;;;35.20;18.90;;;;;;;9.87;76.75;99767.42;210128;1297;140355;-69
2022/11/09 19:51:43;;;;;;;39.00;21.80;;;;;;;9.85;76.85;99767.58;210116;1301;140041;-69
2022/11/09 19:56:48;;;;;;;38.90;23.10;;;;;;;9.82;76.84;99765.04;210321;1301;139312;-69
2022/11/09 20:01:54;;;;;;;30.20;17.20;;;;;;;9.78;76.75;99764.70;210070;1295;141160;-69
2022/11/09 20:06:58;;;;;;;39.30;21.00;;;;;;;9.70;76.63;99764.17;210481;1295;140161;-69
2022/11/09 20:17:26;;;;;;;30.30;19.40;;;;;;;9.60;76.84;99768.08;210272;1294;222891;-68
2022/11/09 20:22:30;;;;;;;36.90;20.50;;;;;;;9.48;76.58;99764.95;210250;1284;140840;-69
2022/11/09 20:27:34;;;;;;;33.10;21.70;;;;;;;9.40;76.86;99764.00;210387;1301;141153;-68
2022/11/09 20:32:38;;;;;;;40.70;25.10;;;;;;;9.36;76.97;99764.22;210436;1295;141120;-70
2022/11/09 20:37:42;;;;;;;37.10;19.00;;;;;;;9.31;77.06;99772.27;209475;1299;139523;-69
2022/11/09 20:42:46;;;;;;;45.00;23.50;;;;;;;9.24;77.13;99772.73;210418;1295;139476;-70
2022/11/09 20:47:49;;;;;;;35.00;20.10;;;;;;;9.21;77.13;99771.89;209189;1301;153437;-68
2022/11/09 20:53:14;;;;;;;38.40;22.00;;;;;;;9.12;76.99;99768.84;208142;1301;223779;-68
2022/11/09 20:58:17;;;;;;;37.20;23.80;;;;;;;9.04;77.18;99776.30;207159;1288;140335;-70
2022/11/09 21:03:21;;;;;;;44.40;24.40;;;;;;;8.96;77.22;99774.19;210212;1302;140460;-70
2022/11/09 21:08:26;;;;;;;41.60;24.20;;;;;;;8.86;77.46;99779.05;210268;1295;140640;-67
2022/11/09 21:13:30;;;;;;;33.40;23.50;;;;;;;8.78;77.45;99783.03;210285;1293;140317;-71
2022/11/09 21:18:34;;;;;;;30.70;21.00;;;;;;;8.72;77.70;99781.00;210436;1295;141568;-70
2022/11/09 21:34:28;;;;;;;40.90;22.30;;;;;;;8.52;77.80;99779.52;210332;1302;224863;-71
2022/11/09 21:39:40;;;;;;;38.30;21.10;;;;;;;8.53;78.07;99777.89;210502;1281;140699;-71
2022/11/09 21:44:45;;;;;;;44.00;25.10;;;;;;;8.49;78.24;99776.52;209393;1295;140662;-70
2022/11/09 21:49:49;;;;;;;35.60;22.20;;;;;;;8.48;78.74;99773.99;210363;1296;140580;-75
2022/11/09 21:54:53;;;;;;;51.10;27.70;;;;;;;8.49;78.67;99773.17;210114;1294;139881;-71
2022/11/09 21:59:57;;;;;;;39.10;24.60;;;;;;;8.54;78.56;99774.39;210274;1301;140237;-71
2022/11/09 22:05:02;;;;;;;36.20;23.20;;;;;;;8.62;78.98;99776.86;210290;1300;140374;-71
2022/11/09 22:10:06;;;;;;;44.80;26.40;;;;;;;8.60;78.67;99775.00;210185;1298;140924;-72
2022/11/09 22:20:54;;;;;;;45.10;24.70;;;;;;;8.45;79.05;99777.05;210389;1301;140498;-74
2022/11/09 22:26:00;;;;;;;47.70;25.90;;;;;;;8.47;78.99;99787.95;210565;1284;141017;-74
2022/11/09 22:31:06;;;;;;;40.60;23.30;;;;;;;8.48;78.98;99791.37;210663;1298;140038;-71
2022/11/09 22:36:12;;;;;;;39.50;24.60;;;;;;;8.51;79.23;99800.63;210782;1292;141943;-72
2022/11/09 22:41:17;;;;;;;45.60;25.20;;;;;;;8.56;79.31;99807.04;210764;1302;141103;-68
2022/11/09 22:46:20;;;;;;;41.10;24.50;;;;;;;8.63;79.29;99804.15;210735;1288;139965;-70
2022/11/09 22:51:24;;;;;;;42.80;27.60;;;;;;;8.64;79.22;99805.73;210892;1293;141025;-70
2022/11/09 22:56:28;;;;;;;53.70;28.60;;;;;;;8.61;79.09;99806.63;210741;1291;139712;-70
2022/11/09 23:01:31;;;;;;;47.40;28.40;;;;;;;8.65;79.28;99804.55;210453;1292;140516;-67
2022/11/09 23:06:35;;;;;;;38.10;25.30;;;;;;;8.68;79.09;99814.45;210511;1303;140018;-71
2022/11/09 23:11:40;;;;;;;44.90;26.40;;;;;;;8.66;79.26;99813.70;210384;1297;141102;-70
2022/11/09 23:16:43;;;;;;;46.10;23.10;;;;;;;8.67;79.40;99822.19;210330;1300;140013;-68
2022/11/09 23:21:47;;;;;;;47.10;23.80;;;;;;;8.72;79.25;99827.05;209676;1298;141793;-69
2022/11/09 23:26:50;;;;;;;44.80;23.60;;;;;;;8.72;79.22;99824.39;209406;1295;139897;-68
2022/11/09 23:31:56;;;;;;;43.30;25.00;;;;;;;8.70;79.30;99821.96;210433;1299;141398;-74
2022/11/09 23:36:59;;;;;;;42.40;26.50;;;;;;;8.64;78.99;99818.16;209507;1293;139769;-71
2022/11/09 23:42:03;;;;;;;48.40;25.10;;;;;;;8.59;79.16;99814.83;208349;1302;141394;-74
2022/11/09 23:47:07;;;;;;;45.40;24.50;;;;;;;8.55;79.10;99828.86;209943;1295;140532;-76